LPPT Airport Information

Runway Information
Runway 03 Length 12484 ft width 148 ft
Elevation 331 ft Threshold 296 ft Heading 22
Runway 21 Length 12484 ft Width 148 ft
Elevation 347 ft Threshold 1969 ft Heading 202
Runway 17 Length 7874 ft width 148 ft
Elevation 374 ft Threshold 0 ft Heading 168
Runway 35 Length 7874 ft Width 148 ft
Elevation 332 ft Threshold 492 ft Heading 348
Airport Frequencies
Type APP Name APP Frequency 119.1 MHZ
Type ATIS Name ATIS Frequency 124.15 MHZ
Type CLD Name CLD Frequency 118.95 MHZ
Type GND Name GND Frequency 121.75 MHZ
Type INFO Name INFO Frequency 123.75 MHZ
Type RDO Name RDO Frequency 127.9 MHZ
Type TWR Name TWR Frequency 118.1 MHZ
Airport Navaids
Type NDB Name Caparica Frequency 389 KHZ
Type NDB Name Arruda Frequency 382 KHZ
Type VOR-DME Name Lisboa Frequency 114800 KHZ
Airport Weather Information & NOTAM
ADDS - METARS form results

(1408 UTC 27 May 2019)
Data provider http://aviationweather.gov/metar/data/
 
METAR text: LPPT 271400Z 34019KT 310V010 9999 FEW025 23/14 Q1016
Conditions at: LPPT (LISBON/PORTELA , PT) observed 1400 UTC 27 May 2019
Temperature: 23.0°C (73°F)
Dewpoint: 14.0°C (57°F) [RH = 57%]
Pressure (altimeter): 30.00 inches Hg (1016.0 mb)
Winds: from the NNW (340 degrees) at 22 MPH (19 knots; 9.8 m/s)
Visibility: 6 or more miles (10+ km)
Ceiling: at least 12,000 feet AGL
Clouds: few clouds at 2500 feet AGL
Weather: no significant weather observed at this time

METAR text: LPPT 271330Z 34016KT 300V020 9999 FEW025 23/14 Q1016
Conditions at: LPPT (LISBON/PORTELA , PT) observed 1330 UTC 27 May 2019
Temperature: 23.0°C (73°F)
Dewpoint: 14.0°C (57°F) [RH = 57%]
Pressure (altimeter): 30.00 inches Hg (1016.0 mb)
Winds: from the NNW (340 degrees) at 18 MPH (16 knots; 8.2 m/s)
Visibility: 6 or more miles (10+ km)
Ceiling: at least 12,000 feet AGL
Clouds: few clouds at 2500 feet AGL
Weather: no significant weather observed at this time

Forecast for: LPPT (LISBON/PORTELA , PT)
Text: TAF LPPT 271100Z 2712/2818 34017KT CAVOK
Forecast period: 1200 UTC 27 May 2019 to 1800 UTC 28 May 2019
Forecast type: FROM: standard forecast or significant change
Winds: from the NNW (340 degrees) at 20 MPH (17 knots; 8.7 m/s)
Visibility: 6 or more miles 10+ km)
Ceiling: unknown
Clouds: missing
Weather: NSW  (no significant weather)
Text: TEMPO 2712/2818 33020G30KT
Forecast period: 1200 UTC 27 May 2019 to 1800 UTC 28 May 2019
Forecast type: TEMPORARY: The following changes expected for less than half the time period
Winds: from the NNW (330 degrees) at 23 MPH (20 knots; 10.3 m/s)
gusting to 34 MPH (30 knots; 15.4 m/s)
Visibility: missing
Ceiling: unknown
Clouds: missing
Weather: no significant weather forecast for this period